createdAt,value
2018-08-09T00:01:52.563Z,21.20
2018-08-09T00:04:22.480Z,21.00
2018-08-09T00:06:52.501Z,20.80
2018-08-09T00:11:51.934Z,20.50
2018-08-09T00:14:21.838Z,20.40
2018-08-09T00:16:51.794Z,20.30
2018-08-09T00:19:21.676Z,20.30
2018-08-09T00:26:52.056Z,20.20
2018-08-09T00:31:51.394Z,20.00
2018-08-09T00:36:50.674Z,19.90
2018-08-09T00:44:19.294Z,19.90
2018-08-09T00:46:49.186Z,19.90
2018-08-09T00:51:48.558Z,19.80
2018-08-09T00:56:47.781Z,19.70
2018-08-09T00:59:17.722Z,19.80
2018-08-09T01:04:17.163Z,20.10
2018-08-09T01:06:47.182Z,20.20
2018-08-09T01:11:46.466Z,20.20
2018-08-09T01:14:16.408Z,20.10
2018-08-09T01:16:46.348Z,20.00
2018-08-09T01:21:45.643Z,20.00
2018-08-09T01:26:44.946Z,19.80
2018-08-09T01:29:14.874Z,19.80
2018-08-09T01:34:14.169Z,19.80
2018-08-09T01:39:14.330Z,19.80
2018-08-09T01:45:18.632Z,19.90
2018-08-09T01:50:17.980Z,19.80
2018-08-09T02:02:45.565Z,19.70
2018-08-09T02:10:14.292Z,19.70
2018-08-09T02:20:12.918Z,19.50
2018-08-09T02:22:42.836Z,19.40
2018-08-09T02:25:12.850Z,19.30
2018-08-09T02:30:12.126Z,19.40
2018-08-09T02:32:42.042Z,19.50
2018-08-09T02:37:41.328Z,19.60
2018-08-09T02:50:09.652Z,19.60
2018-08-09T02:55:08.922Z,19.60
2018-08-09T03:00:08.397Z,19.50
2018-08-09T03:05:07.814Z,19.40
2018-08-09T03:10:07.250Z,19.40
2018-08-09T03:15:06.902Z,19.50
2018-08-09T03:17:36.853Z,19.50
2018-08-09T03:20:06.790Z,19.40
2018-08-09T03:22:36.770Z,19.30
2018-08-09T03:32:35.531Z,18.90
2018-08-09T03:35:05.511Z,18.90
2018-08-09T03:37:35.443Z,18.90
2018-08-09T03:42:34.865Z,18.70
2018-08-09T03:47:34.273Z,18.70
2018-08-09T03:50:04.377Z,18.80
2018-08-09T04:00:02.524Z,18.80
2018-08-09T04:14:59.382Z,19.20
2018-08-09T04:19:58.691Z,19.30
2018-08-09T04:24:58.020Z,19.40
2018-08-09T04:39:54.935Z,19.40
2018-08-09T04:44:54.309Z,19.40
2018-08-09T04:49:53.633Z,19.40
2018-08-09T04:52:23.579Z,19.40
2018-08-09T04:54:53.524Z,19.40
2018-08-09T04:57:23.479Z,19.50
2018-08-09T05:14:50.438Z,20.00
2018-08-09T05:17:20.396Z,20.20
2018-08-09T05:19:51.370Z,20.30
2018-08-09T05:22:21.330Z,20.30
2018-08-09T05:29:50.078Z,20.00
2018-08-09T05:34:49.515Z,20.30
2018-08-09T05:42:18.246Z,20.30
2018-08-09T05:44:48.182Z,20.30
2018-08-09T05:49:47.569Z,20.20
2018-08-09T05:59:52.204Z,20.20
2018-08-09T06:04:51.520Z,20.70
2018-08-09T06:07:21.772Z,20.90
2018-08-09T06:09:51.707Z,20.90
2018-08-09T06:12:21.654Z,21.00
2018-08-09T06:17:21.181Z,21.10
2018-08-09T06:22:20.545Z,21.40
2018-08-09T06:27:19.846Z,21.50
2018-08-09T06:37:18.361Z,21.70
2018-08-09T06:42:17.687Z,22.00
2018-08-09T06:52:15.831Z,22.20
2018-08-09T06:54:46.587Z,22.20
2018-08-09T06:57:16.599Z,22.30
2018-08-09T07:07:14.860Z,22.70
2018-08-09T07:09:44.861Z,22.70
2018-08-09T07:17:13.682Z,23.00
2018-08-09T07:19:43.602Z,23.00
2018-08-09T07:22:13.524Z,23.10
2018-08-09T07:27:12.931Z,23.50
2018-08-09T07:29:42.853Z,23.60
2018-08-09T07:34:42.239Z,23.70
2018-08-09T07:37:12.271Z,23.80
2018-08-09T07:42:11.894Z,23.80
2018-08-09T07:49:40.599Z,24.00
2018-08-09T07:52:10.589Z,24.10
2018-08-09T07:59:44.369Z,24.20
2018-08-09T08:02:14.388Z,24.20
2018-08-09T08:04:44.397Z,24.30
2018-08-09T08:12:13.213Z,24.60
2018-08-09T08:17:12.580Z,24.60
2018-08-09T08:19:42.559Z,24.80
2018-08-09T08:22:12.561Z,24.90
2018-08-09T08:27:11.916Z,24.90
2018-08-09T08:32:11.294Z,25.10
2018-08-09T08:37:10.713Z,25.40
2018-08-09T08:42:10.066Z,25.80
2018-08-09T08:47:09.868Z,25.60
2018-08-09T08:52:09.256Z,25.20
2018-08-09T08:54:39.202Z,25.30
2018-08-09T09:02:08.039Z,25.50
2018-08-09T09:07:07.470Z,25.80
2018-08-09T09:09:37.449Z,26.00
2018-08-09T09:12:08.923Z,26.10
2018-08-09T09:19:37.806Z,26.00
2018-08-09T09:24:37.223Z,25.90
2018-08-09T09:29:38.642Z,25.90
2018-08-09T09:32:08.606Z,26.10
2018-08-09T09:39:37.520Z,26.20
2018-08-09T09:42:07.620Z,26.10
2018-08-09T09:44:37.649Z,26.20
2018-08-09T09:47:07.658Z,26.20
2018-08-09T09:57:24.266Z,26.40
2018-08-09T10:12:21.506Z,26.60
2018-08-09T10:14:51.495Z,26.70
2018-08-09T10:29:48.668Z,27.80
2018-08-09T10:32:19.019Z,27.80
2018-08-09T10:34:49.043Z,28.00
2018-08-09T10:37:19.157Z,28.20
2018-08-09T10:44:48.719Z,28.70
2018-08-09T11:04:44.791Z,29.00
2018-08-09T11:14:43.137Z,29.20
2018-08-09T11:22:11.964Z,29.00
2018-08-09T11:39:38.699Z,30.20
2018-08-09T11:44:38.145Z,30.60
2018-08-09T11:47:08.149Z,30.40
2018-08-09T11:49:38.120Z,30.10
2018-08-09T11:52:08.161Z,29.80
2018-08-09T11:54:38.177Z,29.50
2018-08-09T11:59:37.561Z,29.70
2018-08-09T12:12:06.018Z,29.50
2018-08-09T12:14:36.083Z,29.30
2018-08-09T12:17:06.042Z,29.20
2018-08-09T12:19:36.263Z,29.20
2018-08-09T12:24:35.853Z,30.10
2018-08-09T12:29:35.414Z,30.80
2018-08-09T12:34:35.365Z,30.30
2018-08-09T12:39:34.881Z,30.20
2018-08-09T12:44:34.525Z,30.20
2018-08-09T12:54:33.587Z,30.50
2018-08-09T12:57:03.643Z,30.20
2018-08-09T13:29:27.552Z,28.40
2018-08-09T13:31:57.609Z,28.50
2018-08-09T13:36:57.261Z,29.50
2018-08-09T13:54:24.059Z,30.00
2018-08-09T13:56:54.105Z,30.30
2018-08-09T14:01:54.895Z,31.90
2018-08-09T14:04:24.963Z,33.00
2018-08-09T14:09:24.424Z,32.80
2018-08-09T14:11:54.541Z,32.00
2018-08-09T14:16:54.093Z,30.50
2018-08-09T14:21:53.563Z,30.90
2018-08-09T14:36:50.906Z,30.00
2018-08-09T14:44:19.796Z,29.30
2018-08-09T14:46:49.762Z,28.90
2018-08-09T14:49:19.756Z,28.60
2018-08-09T14:54:19.155Z,28.10
2018-08-09T14:56:49.194Z,28.00
2018-08-09T15:04:18.186Z,27.70
2018-08-09T15:06:48.562Z,27.60
2018-08-09T15:11:47.980Z,27.20
2018-08-09T15:14:18.058Z,27.20
2018-08-09T15:16:48.071Z,27.20
2018-08-09T15:21:47.546Z,27.00
2018-08-09T15:26:47.175Z,26.70
2018-08-09T15:34:16.061Z,26.40
2018-08-09T15:39:15.682Z,26.30
2018-08-09T15:44:15.169Z,26.10
2018-08-09T15:49:14.611Z,25.60
2018-08-09T16:09:14.530Z,24.10
2018-08-09T16:11:44.838Z,24.20
2018-08-09T16:14:14.949Z,24.00
2018-08-09T16:19:14.532Z,23.50
2018-08-09T16:21:44.620Z,23.30
2018-08-09T16:26:44.113Z,22.40
2018-08-09T16:29:14.842Z,22.00
2018-08-09T16:44:13.719Z,21.70
2018-08-09T16:49:13.207Z,22.00
2018-08-09T16:56:42.232Z,22.50
2018-08-09T16:59:12.217Z,22.60
2018-08-09T17:04:11.897Z,22.70
2018-08-09T17:06:42.050Z,22.60
2018-08-09T17:09:13.737Z,22.80
2018-08-09T17:16:45.671Z,23.10
2018-08-09T17:24:14.800Z,23.50
2018-08-09T17:36:43.262Z,23.60
2018-08-09T17:39:13.636Z,23.70
2018-08-09T17:41:43.647Z,23.60
2018-08-09T17:49:12.450Z,23.50
2018-08-09T17:56:41.301Z,23.50
2018-08-09T17:59:11.283Z,23.20
2018-08-09T18:14:09.893Z,22.80
2018-08-09T18:16:39.912Z,22.70
2018-08-09T18:26:38.327Z,22.50
2018-08-09T18:29:08.311Z,22.40
2018-08-09T18:51:35.444Z,21.80
2018-08-09T18:56:41.486Z,21.70
2018-08-09T19:14:10.728Z,21.80
2018-08-09T19:26:38.652Z,21.80
2018-08-09T19:31:38.142Z,21.80
2018-08-09T19:36:37.706Z,21.90
2018-08-09T19:39:10.882Z,21.80
2018-08-09T19:44:11.064Z,21.80
2018-08-09T20:04:07.942Z,21.80
2018-08-09T20:06:37.978Z,21.80
2018-08-09T20:14:08.082Z,21.80
2018-08-09T20:16:38.134Z,21.80
2018-08-09T20:19:08.155Z,21.70
2018-08-09T20:21:38.270Z,21.70
2018-08-09T20:36:35.768Z,21.60
2018-08-09T20:54:05.448Z,21.40
2018-08-09T21:06:33.419Z,20.80
2018-08-09T21:14:03.899Z,20.60
2018-08-09T21:19:03.373Z,20.00
2018-08-09T21:21:33.535Z,20.50
2018-08-09T21:29:03.336Z,20.40
2018-08-09T21:34:02.777Z,20.40
2018-08-09T21:39:02.285Z,20.30
2018-08-09T21:46:32.144Z,20.20
2018-08-09T21:51:31.912Z,20.10
2018-08-09T21:54:03.845Z,20.10
2018-08-09T21:56:33.879Z,20.00
2018-08-09T21:59:04.226Z,20.00
2018-08-09T22:16:58.916Z,19.80
2018-08-09T22:24:39.163Z,19.80
2018-08-09T22:32:08.757Z,19.60
2018-08-09T22:42:07.124Z,19.70
2018-08-09T22:47:06.514Z,19.60
2018-08-09T22:59:34.418Z,19.30
2018-08-09T23:04:33.998Z,19.10
2018-08-09T23:14:32.577Z,19.10
2018-08-09T23:17:05.157Z,19.20
2018-08-09T23:22:04.526Z,19.10
2018-08-09T23:24:34.507Z,18.90
2018-08-09T23:34:33.006Z,18.90
2018-08-09T23:37:02.955Z,18.80
2018-08-09T23:39:32.937Z,18.80
2018-08-09T23:47:05.338Z,18.80
2018-08-09T23:57:03.687Z,18.60
2018-08-09T23:59:33.626Z,18.70
